sensor_id;sensor_type;location;lat;lon;timestamp;temperature;humidity
43581;DHT22;29175;51.030;4.606;2023-07-28T00:00:23;18.60;99.90
43581;DHT22;29175;51.030;4.606;2023-07-28T00:02:49;18.60;99.90
43581;DHT22;29175;51.030;4.606;2023-07-28T00:05:14;18.60;99.90
43581;DHT22;29175;51.030;4.606;2023-07-28T00:07:40;18.70;99.90
43581;DHT22;29175;51.030;4.606;2023-07-28T00:10:06;18.70;99.90
43581;DHT22;29175;51.030;4.606;2023-07-28T00:12:32;18.60;99.90
43581;DHT22;29175;51.030;4.606;2023-07-28T00:14:57;18.70;99.90
43581;DHT22;29175;51.030;4.606;2023-07-28T00:17:26;18.70;99.90
43581;DHT22;29175;51.030;4.606;2023-07-28T00:19:52;18.60;99.90
43581;DHT22;29175;51.030;4.606;2023-07-28T00:22:19;18.70;99.90
43581;DHT22;29175;51.030;4.606;2023-07-28T00:24:46;18.80;99.90
43581;DHT22;29175;51.030;4.606;2023-07-28T00:27:12;18.80;99.90
43581;DHT22;29175;51.030;4.606;2023-07-28T00:29:41;18.70;99.90
43581;DHT22;29175;51.030;4.606;2023-07-28T00:32:07;18.80;99.90
43581;DHT22;29175;51.030;4.606;2023-07-28T00:34:33;18.90;99.90
43581;DHT22;29175;51.030;4.606;2023-07-28T00:36:59;18.90;99.90
43581;DHT22;29175;51.030;4.606;2023-07-28T00:39:24;18.80;99.90
43581;DHT22;29175;51.030;4.606;2023-07-28T00:41:52;18.80;99.90
43581;DHT22;29175;51.030;4.606;2023-07-28T00:44:19;18.80;99.90
43581;DHT22;29175;51.030;4.606;2023-07-28T00:46:47;18.80;99.90
43581;DHT22;29175;51.030;4.606;2023-07-28T00:49:13;18.50;99.90
43581;DHT22;29175;51.030;4.606;2023-07-28T00:51:39;18.90;99.90
43581;DHT22;29175;51.030;4.606;2023-07-28T00:54:05;18.80;99.90
43581;DHT22;29175;51.030;4.606;2023-07-28T00:56:32;18.60;99.90
43581;DHT22;29175;51.030;4.606;2023-07-28T00:58:59;18.70;99.90
43581;DHT22;29175;51.030;4.606;2023-07-28T01:01:25;18.70;99.90
43581;DHT22;29175;51.030;4.606;2023-07-28T01:03:52;18.60;99.90
43581;DHT22;29175;51.030;4.606;2023-07-28T01:06:35;18.70;99.90
43581;DHT22;29175;51.030;4.606;2023-07-28T01:09:11;18.80;99.90
43581;DHT22;29175;51.030;4.606;2023-07-28T01:11:38;18.70;99.90
43581;DHT22;29175;51.030;4.606;2023-07-28T01:14:03;18.80;99.90
43581;DHT22;29175;51.030;4.606;2023-07-28T01:16:29;18.80;99.90
43581;DHT22;29175;51.030;4.606;2023-07-28T01:18:55;18.70;99.90
43581;DHT22;29175;51.030;4.606;2023-07-28T01:21:26;18.80;99.90
43581;DHT22;29175;51.030;4.606;2023-07-28T01:24:20;18.90;99.90
43581;DHT22;29175;51.030;4.606;2023-07-28T01:26:49;18.60;99.90
43581;DHT22;29175;51.030;4.606;2023-07-28T01:29:16;18.70;99.90
43581;DHT22;29175;51.030;4.606;2023-07-28T01:31:48;18.80;99.90
43581;DHT22;29175;51.030;4.606;2023-07-28T01:34:17;18.80;99.90
43581;DHT22;29175;51.030;4.606;2023-07-28T01:36:42;18.90;99.90
43581;DHT22;29175;51.030;4.606;2023-07-28T01:39:10;18.80;99.90
43581;DHT22;29175;51.030;4.606;2023-07-28T01:41:36;18.90;99.90
43581;DHT22;29175;51.030;4.606;2023-07-28T01:44:02;18.90;99.90
43581;DHT22;29175;51.030;4.606;2023-07-28T01:46:28;18.90;99.90
43581;DHT22;29175;51.030;4.606;2023-07-28T01:48:53;18.70;99.90
43581;DHT22;29175;51.030;4.606;2023-07-28T01:51:22;19.00;99.90
43581;DHT22;29175;51.030;4.606;2023-07-28T01:53:49;19.00;99.90
43581;DHT22;29175;51.030;4.606;2023-07-28T01:56:17;19.10;99.90
43581;DHT22;29175;51.030;4.606;2023-07-28T01:58:42;19.00;99.90
43581;DHT22;29175;51.030;4.606;2023-07-28T02:01:08;19.10;99.90
43581;DHT22;29175;51.030;4.606;2023-07-28T02:03:34;19.10;99.90
43581;DHT22;29175;51.030;4.606;2023-07-28T02:06:01;19.10;99.90
43581;DHT22;29175;51.030;4.606;2023-07-28T02:08:26;19.20;99.90
43581;DHT22;29175;51.030;4.606;2023-07-28T02:10:53;19.10;99.90
43581;DHT22;29175;51.030;4.606;2023-07-28T02:13:19;19.10;99.90
43581;DHT22;29175;51.030;4.606;2023-07-28T02:15:45;19.00;99.90
43581;DHT22;29175;51.030;4.606;2023-07-28T02:18:11;19.20;99.90
43581;DHT22;29175;51.030;4.606;2023-07-28T02:20:37;19.30;99.90
43581;DHT22;29175;51.030;4.606;2023-07-28T02:23:04;19.30;99.90
43581;DHT22;29175;51.030;4.606;2023-07-28T02:25:30;19.40;99.90
43581;DHT22;29175;51.030;4.606;2023-07-28T02:27:56;19.30;99.90
43581;DHT22;29175;51.030;4.606;2023-07-28T02:30:22;19.30;99.90
43581;DHT22;29175;51.030;4.606;2023-07-28T02:32:48;19.30;99.90
43581;DHT22;29175;51.030;4.606;2023-07-28T02:35:14;19.20;99.90
43581;DHT22;29175;51.030;4.606;2023-07-28T02:37:41;19.10;99.90
43581;DHT22;29175;51.030;4.606;2023-07-28T02:40:07;19.00;99.90
43581;DHT22;29175;51.030;4.606;2023-07-28T02:42:33;19.10;99.90
43581;DHT22;29175;51.030;4.606;2023-07-28T02:45:00;19.00;99.90
43581;DHT22;29175;51.030;4.606;2023-07-28T02:47:26;19.10;99.90
43581;DHT22;29175;51.030;4.606;2023-07-28T02:49:52;19.10;99.90
43581;DHT22;29175;51.030;4.606;2023-07-28T02:52:17;19.10;99.90
43581;DHT22;29175;51.030;4.606;2023-07-28T02:54:43;19.20;99.90
43581;DHT22;29175;51.030;4.606;2023-07-28T02:57:09;19.00;99.90
43581;DHT22;29175;51.030;4.606;2023-07-28T02:59:34;19.10;99.90
43581;DHT22;29175;51.030;4.606;2023-07-28T03:02:00;19.00;99.90
43581;DHT22;29175;51.030;4.606;2023-07-28T03:04:26;18.90;99.90
43581;DHT22;29175;51.030;4.606;2023-07-28T03:06:52;19.00;99.90
43581;DHT22;29175;51.030;4.606;2023-07-28T03:09:18;19.10;99.90
43581;DHT22;29175;51.030;4.606;2023-07-28T03:11:44;19.00;99.90
43581;DHT22;29175;51.030;4.606;2023-07-28T03:14:11;19.10;99.90
43581;DHT22;29175;51.030;4.606;2023-07-28T03:16:38;19.00;99.90
43581;DHT22;29175;51.030;4.606;2023-07-28T03:19:05;19.10;99.90
43581;DHT22;29175;51.030;4.606;2023-07-28T03:21:31;19.00;99.90
43581;DHT22;29175;51.030;4.606;2023-07-28T03:23:57;19.00;99.90
43581;DHT22;29175;51.030;4.606;2023-07-28T03:26:22;19.10;99.90
43581;DHT22;29175;51.030;4.606;2023-07-28T03:28:48;19.20;99.90
43581;DHT22;29175;51.030;4.606;2023-07-28T03:31:14;19.30;99.90
43581;DHT22;29175;51.030;4.606;2023-07-28T03:33:40;19.20;99.90
43581;DHT22;29175;51.030;4.606;2023-07-28T03:36:07;19.00;99.90
43581;DHT22;29175;51.030;4.606;2023-07-28T03:38:33;19.10;99.90
43581;DHT22;29175;51.030;4.606;2023-07-28T03:41:00;19.00;99.90
43581;DHT22;29175;51.030;4.606;2023-07-28T03:43:27;19.10;99.90
43581;DHT22;29175;51.030;4.606;2023-07-28T03:45:52;18.90;99.90
43581;DHT22;29175;51.030;4.606;2023-07-28T03:48:18;19.00;99.90
43581;DHT22;29175;51.030;4.606;2023-07-28T03:50:44;18.90;99.90
43581;DHT22;29175;51.030;4.606;2023-07-28T03:53:12;19.00;99.90
43581;DHT22;29175;51.030;4.606;2023-07-28T03:55:38;18.80;99.90
43581;DHT22;29175;51.030;4.606;2023-07-28T03:58:04;18.70;99.90
43581;DHT22;29175;51.030;4.606;2023-07-28T04:00:31;18.90;99.90
43581;DHT22;29175;51.030;4.606;2023-07-28T04:02:56;18.80;99.90
43581;DHT22;29175;51.030;4.606;2023-07-28T04:05:24;18.70;99.90
43581;DHT22;29175;51.030;4.606;2023-07-28T04:07:50;18.80;99.90
43581;DHT22;29175;51.030;4.606;2023-07-28T04:10:15;18.90;99.90
43581;DHT22;29175;51.030;4.606;2023-07-28T04:12:41;19.00;99.90
43581;DHT22;29175;51.030;4.606;2023-07-28T04:15:07;19.00;99.90
43581;DHT22;29175;51.030;4.606;2023-07-28T04:17:33;18.90;99.90
43581;DHT22;29175;51.030;4.606;2023-07-28T04:19:58;18.90;99.90
43581;DHT22;29175;51.030;4.606;2023-07-28T04:22:24;18.90;99.90
43581;DHT22;29175;51.030;4.606;2023-07-28T04:24:50;18.90;99.90
43581;DHT22;29175;51.030;4.606;2023-07-28T04:27:15;18.90;99.90
43581;DHT22;29175;51.030;4.606;2023-07-28T04:29:41;18.90;99.90
43581;DHT22;29175;51.030;4.606;2023-07-28T04:32:07;18.90;99.90
43581;DHT22;29175;51.030;4.606;2023-07-28T04:34:33;19.00;99.90
43581;DHT22;29175;51.030;4.606;2023-07-28T04:36:59;19.00;99.90
43581;DHT22;29175;51.030;4.606;2023-07-28T04:39:25;18.90;99.90
43581;DHT22;29175;51.030;4.606;2023-07-28T04:41:50;18.80;99.90
43581;DHT22;29175;51.030;4.606;2023-07-28T04:44:17;18.80;99.90
43581;DHT22;29175;51.030;4.606;2023-07-28T04:46:43;18.80;99.90
43581;DHT22;29175;51.030;4.606;2023-07-28T04:49:08;18.80;99.90
43581;DHT22;29175;51.030;4.606;2023-07-28T04:51:34;18.70;99.90
43581;DHT22;29175;51.030;4.606;2023-07-28T04:54:00;18.70;99.90
43581;DHT22;29175;51.030;4.606;2023-07-28T04:56:25;18.70;99.90
43581;DHT22;29175;51.030;4.606;2023-07-28T04:58:51;18.70;99.90
43581;DHT22;29175;51.030;4.606;2023-07-28T05:01:16;18.70;99.90
43581;DHT22;29175;51.030;4.606;2023-07-28T05:03:42;18.70;99.90
43581;DHT22;29175;51.030;4.606;2023-07-28T05:06:08;18.70;99.90
43581;DHT22;29175;51.030;4.606;2023-07-28T05:08:34;18.70;99.90
43581;DHT22;29175;51.030;4.606;2023-07-28T05:10:59;18.70;99.90
43581;DHT22;29175;51.030;4.606;2023-07-28T05:13:25;18.70;99.90
43581;DHT22;29175;51.030;4.606;2023-07-28T05:15:51;18.70;99.90
43581;DHT22;29175;51.030;4.606;2023-07-28T05:18:17;18.80;99.90
43581;DHT22;29175;51.030;4.606;2023-07-28T05:20:43;18.80;99.90
43581;DHT22;29175;51.030;4.606;2023-07-28T05:23:08;18.90;99.90
43581;DHT22;29175;51.030;4.606;2023-07-28T05:25:34;19.00;99.90
43581;DHT22;29175;51.030;4.606;2023-07-28T05:28:00;18.90;99.90
43581;DHT22;29175;51.030;4.606;2023-07-28T05:30:25;19.00;99.90
43581;DHT22;29175;51.030;4.606;2023-07-28T05:32:51;19.10;99.90
43581;DHT22;29175;51.030;4.606;2023-07-28T05:35:18;19.20;99.90
43581;DHT22;29175;51.030;4.606;2023-07-28T05:37:46;19.10;99.90
43581;DHT22;29175;51.030;4.606;2023-07-28T05:40:12;19.20;99.90
43581;DHT22;29175;51.030;4.606;2023-07-28T05:42:38;19.30;99.90
43581;DHT22;29175;51.030;4.606;2023-07-28T05:45:05;19.30;99.90
43581;DHT22;29175;51.030;4.606;2023-07-28T05:47:31;19.20;99.90
43581;DHT22;29175;51.030;4.606;2023-07-28T05:49:56;19.40;99.90
43581;DHT22;29175;51.030;4.606;2023-07-28T05:52:22;19.40;99.90
43581;DHT22;29175;51.030;4.606;2023-07-28T05:54:48;19.40;99.90
43581;DHT22;29175;51.030;4.606;2023-07-28T05:57:14;19.50;99.90
43581;DHT22;29175;51.030;4.606;2023-07-28T05:59:39;19.60;99.90
43581;DHT22;29175;51.030;4.606;2023-07-28T06:02:06;19.50;99.90
43581;DHT22;29175;51.030;4.606;2023-07-28T06:04:31;19.60;99.90
43581;DHT22;29175;51.030;4.606;2023-07-28T06:06:57;19.70;99.90
43581;DHT22;29175;51.030;4.606;2023-07-28T06:09:22;19.90;99.90
43581;DHT22;29175;51.030;4.606;2023-07-28T06:11:48;20.00;99.90
43581;DHT22;29175;51.030;4.606;2023-07-28T06:14:14;20.20;99.90
43581;DHT22;29175;51.030;4.606;2023-07-28T06:16:39;20.30;99.90
43581;DHT22;29175;51.030;4.606;2023-07-28T06:19:05;20.40;99.90
43581;DHT22;29175;51.030;4.606;2023-07-28T06:21:31;20.60;99.90
43581;DHT22;29175;51.030;4.606;2023-07-28T06:23:56;20.60;99.90
43581;DHT22;29175;51.030;4.606;2023-07-28T06:26:22;20.70;99.90
43581;DHT22;29175;51.030;4.606;2023-07-28T06:28:49;20.60;99.90
43581;DHT22;29175;51.030;4.606;2023-07-28T06:31:14;20.70;99.90
43581;DHT22;29175;51.030;4.606;2023-07-28T06:33:40;20.80;99.90
43581;DHT22;29175;51.030;4.606;2023-07-28T06:36:06;21.00;99.90
43581;DHT22;29175;51.030;4.606;2023-07-28T06:38:32;21.40;99.90
43581;DHT22;29175;51.030;4.606;2023-07-28T06:40:58;21.80;99.90
43581;DHT22;29175;51.030;4.606;2023-07-28T06:43:23;21.80;99.90
43581;DHT22;29175;51.030;4.606;2023-07-28T06:45:53;21.80;99.90
43581;DHT22;29175;51.030;4.606;2023-07-28T06:48:19;21.90;99.90
43581;DHT22;29175;51.030;4.606;2023-07-28T06:50:44;22.10;99.90
43581;DHT22;29175;51.030;4.606;2023-07-28T06:53:10;22.60;99.90
43581;DHT22;29175;51.030;4.606;2023-07-28T06:55:36;23.00;99.90
43581;DHT22;29175;51.030;4.606;2023-07-28T06:58:05;23.00;99.90
43581;DHT22;29175;51.030;4.606;2023-07-28T07:00:31;23.00;99.90
43581;DHT22;29175;51.030;4.606;2023-07-28T07:02:56;22.90;99.90
43581;DHT22;29175;51.030;4.606;2023-07-28T07:05:22;22.90;99.90
43581;DHT22;29175;51.030;4.606;2023-07-28T07:07:49;23.10;99.90
43581;DHT22;29175;51.030;4.606;2023-07-28T07:10:14;23.40;99.90
43581;DHT22;29175;51.030;4.606;2023-07-28T07:12:40;23.60;99.90
43581;DHT22;29175;51.030;4.606;2023-07-28T07:15:06;24.30;99.90
43581;DHT22;29175;51.030;4.606;2023-07-28T07:17:32;24.50;99.90
43581;DHT22;29175;51.030;4.606;2023-07-28T07:19:58;24.30;99.90
43581;DHT22;29175;51.030;4.606;2023-07-28T07:22:24;24.10;99.90
43581;DHT22;29175;51.030;4.606;2023-07-28T07:24:50;23.70;99.90
43581;DHT22;29175;51.030;4.606;2023-07-28T07:27:15;23.60;99.90
43581;DHT22;29175;51.030;4.606;2023-07-28T07:29:41;23.50;99.90
43581;DHT22;29175;51.030;4.606;2023-07-28T07:32:07;23.50;99.90
43581;DHT22;29175;51.030;4.606;2023-07-28T07:34:34;23.80;99.90
43581;DHT22;29175;51.030;4.606;2023-07-28T07:36:59;25.50;99.90
43581;DHT22;29175;51.030;4.606;2023-07-28T07:39:25;27.80;99.90
43581;DHT22;29175;51.030;4.606;2023-07-28T07:41:51;29.00;99.90
43581;DHT22;29175;51.030;4.606;2023-07-28T07:44:16;29.70;99.90
43581;DHT22;29175;51.030;4.606;2023-07-28T07:46:42;30.70;99.90
43581;DHT22;29175;51.030;4.606;2023-07-28T07:49:07;31.50;99.90
43581;DHT22;29175;51.030;4.606;2023-07-28T07:51:33;31.60;99.90
43581;DHT22;29175;51.030;4.606;2023-07-28T07:53:59;32.30;99.90
43581;DHT22;29175;51.030;4.606;2023-07-28T07:56:27;31.80;99.90
43581;DHT22;29175;51.030;4.606;2023-07-28T07:58:53;32.50;99.90
43581;DHT22;29175;51.030;4.606;2023-07-28T08:01:18;33.00;99.90
43581;DHT22;29175;51.030;4.606;2023-07-28T08:03:44;32.90;98.50
43581;DHT22;29175;51.030;4.606;2023-07-28T08:06:10;32.90;98.80
43581;DHT22;29175;51.030;4.606;2023-07-28T08:08:38;32.80;98.10
43581;DHT22;29175;51.030;4.606;2023-07-28T08:11:05;31.80;99.70
43581;DHT22;29175;51.030;4.606;2023-07-28T08:13:31;32.70;98.40
43581;DHT22;29175;51.030;4.606;2023-07-28T08:15:57;34.40;97.10
43581;DHT22;29175;51.030;4.606;2023-07-28T08:18:22;35.10;96.60
43581;DHT22;29175;51.030;4.606;2023-07-28T08:20:48;34.70;95.80
43581;DHT22;29175;51.030;4.606;2023-07-28T08:23:14;32.70;97.10
43581;DHT22;29175;51.030;4.606;2023-07-28T08:25:39;29.90;99.90
43581;DHT22;29175;51.030;4.606;2023-07-28T08:28:06;28.90;99.90
43581;DHT22;29175;51.030;4.606;2023-07-28T08:30:32;28.20;99.90
43581;DHT22;29175;51.030;4.606;2023-07-28T08:32:58;27.70;99.90
43581;DHT22;29175;51.030;4.606;2023-07-28T08:35:24;27.10;99.90
43581;DHT22;29175;51.030;4.606;2023-07-28T08:37:49;26.50;99.90
43581;DHT22;29175;51.030;4.606;2023-07-28T08:40:15;26.50;99.90
43581;DHT22;29175;51.030;4.606;2023-07-28T08:42:41;26.80;99.90
43581;DHT22;29175;51.030;4.606;2023-07-28T08:45:07;27.40;99.90
43581;DHT22;29175;51.030;4.606;2023-07-28T08:47:34;28.00;99.90
43581;DHT22;29175;51.030;4.606;2023-07-28T08:50:00;28.50;99.90
43581;DHT22;29175;51.030;4.606;2023-07-28T08:52:26;28.20;99.90
43581;DHT22;29175;51.030;4.606;2023-07-28T08:54:53;28.60;99.90
43581;DHT22;29175;51.030;4.606;2023-07-28T08:57:18;28.80;99.90
43581;DHT22;29175;51.030;4.606;2023-07-28T08:59:45;29.00;99.90
43581;DHT22;29175;51.030;4.606;2023-07-28T09:02:15;28.80;99.90
43581;DHT22;29175;51.030;4.606;2023-07-28T09:04:43;28.90;99.90
43581;DHT22;29175;51.030;4.606;2023-07-28T09:07:08;28.50;99.90
43581;DHT22;29175;51.030;4.606;2023-07-28T09:09:35;27.90;99.90
43581;DHT22;29175;51.030;4.606;2023-07-28T09:12:02;27.50;99.90
43581;DHT22;29175;51.030;4.606;2023-07-28T09:14:29;27.30;99.90
43581;DHT22;29175;51.030;4.606;2023-07-28T09:16:55;27.50;99.90
43581;DHT22;29175;51.030;4.606;2023-07-28T09:19:21;27.40;99.90
43581;DHT22;29175;51.030;4.606;2023-07-28T09:21:58;26.60;99.90
43581;DHT22;29175;51.030;4.606;2023-07-28T09:24:33;25.90;99.90
43581;DHT22;29175;51.030;4.606;2023-07-28T09:26:59;25.80;99.90
43581;DHT22;29175;51.030;4.606;2023-07-28T09:29:25;25.30;99.90
43581;DHT22;29175;51.030;4.606;2023-07-28T09:31:53;25.20;99.90
43581;DHT22;29175;51.030;4.606;2023-07-28T09:34:28;25.00;99.90
43581;DHT22;29175;51.030;4.606;2023-07-28T09:36:55;25.10;99.90
43581;DHT22;29175;51.030;4.606;2023-07-28T09:39:21;25.20;99.90
43581;DHT22;29175;51.030;4.606;2023-07-28T09:41:47;25.40;99.90
43581;DHT22;29175;51.030;4.606;2023-07-28T09:44:14;26.00;99.90
43581;DHT22;29175;51.030;4.606;2023-07-28T09:46:50;26.70;99.90
43581;DHT22;29175;51.030;4.606;2023-07-28T09:49:21;26.80;99.90
43581;DHT22;29175;51.030;4.606;2023-07-28T09:51:49;26.70;99.90
43581;DHT22;29175;51.030;4.606;2023-07-28T09:54:23;26.40;99.90
43581;DHT22;29175;51.030;4.606;2023-07-28T09:56:57;26.30;99.90
43581;DHT22;29175;51.030;4.606;2023-07-28T09:59:28;26.30;99.90
43581;DHT22;29175;51.030;4.606;2023-07-28T10:01:56;26.10;99.90
43581;DHT22;29175;51.030;4.606;2023-07-28T10:04:23;26.40;99.90
43581;DHT22;29175;51.030;4.606;2023-07-28T10:06:50;26.30;99.90
43581;DHT22;29175;51.030;4.606;2023-07-28T10:09:16;26.30;99.90
43581;DHT22;29175;51.030;4.606;2023-07-28T10:11:43;26.30;99.90
43581;DHT22;29175;51.030;4.606;2023-07-28T10:14:09;26.60;99.90
43581;DHT22;29175;51.030;4.606;2023-07-28T10:16:38;26.60;99.90
43581;DHT22;29175;51.030;4.606;2023-07-28T10:19:04;26.80;99.90
43581;DHT22;29175;51.030;4.606;2023-07-28T10:21:30;27.00;99.90
43581;DHT22;29175;51.030;4.606;2023-07-28T10:23:58;26.80;99.90
43581;DHT22;29175;51.030;4.606;2023-07-28T10:26:40;26.40;99.90
43581;DHT22;29175;51.030;4.606;2023-07-28T10:29:14;25.90;99.90
43581;DHT22;29175;51.030;4.606;2023-07-28T10:31:55;25.60;99.90
43581;DHT22;29175;51.030;4.606;2023-07-28T10:34:22;25.10;99.90
43581;DHT22;29175;51.030;4.606;2023-07-28T10:36:58;24.70;99.90
43581;DHT22;29175;51.030;4.606;2023-07-28T10:39:24;24.80;99.90
43581;DHT22;29175;51.030;4.606;2023-07-28T10:42:05;24.70;99.90
43581;DHT22;29175;51.030;4.606;2023-07-28T10:44:33;24.90;99.90
43581;DHT22;29175;51.030;4.606;2023-07-28T10:46:59;25.50;99.90
43581;DHT22;29175;51.030;4.606;2023-07-28T10:49:29;25.70;99.90
43581;DHT22;29175;51.030;4.606;2023-07-28T10:51:55;25.60;99.90
43581;DHT22;29175;51.030;4.606;2023-07-28T10:54:22;25.30;99.90
43581;DHT22;29175;51.030;4.606;2023-07-28T10:56:49;25.60;99.90
43581;DHT22;29175;51.030;4.606;2023-07-28T10:59:16;26.20;99.90
43581;DHT22;29175;51.030;4.606;2023-07-28T11:01:43;26.90;99.90
43581;DHT22;29175;51.030;4.606;2023-07-28T11:04:17;26.60;99.90
43581;DHT22;29175;51.030;4.606;2023-07-28T11:06:46;26.10;99.90
43581;DHT22;29175;51.030;4.606;2023-07-28T11:09:14;25.40;99.90
43581;DHT22;29175;51.030;4.606;2023-07-28T11:11:40;25.10;99.90
43581;DHT22;29175;51.030;4.606;2023-07-28T11:14:08;25.20;99.90
43581;DHT22;29175;51.030;4.606;2023-07-28T11:16:41;25.00;99.90
43581;DHT22;29175;51.030;4.606;2023-07-28T11:19:12;25.00;99.90
43581;DHT22;29175;51.030;4.606;2023-07-28T11:21:43;25.30;99.90
43581;DHT22;29175;51.030;4.606;2023-07-28T11:24:11;26.30;99.90
43581;DHT22;29175;51.030;4.606;2023-07-28T11:26:39;27.50;99.90
43581;DHT22;29175;51.030;4.606;2023-07-28T11:29:06;27.90;99.90
43581;DHT22;29175;51.030;4.606;2023-07-28T11:31:33;28.10;99.90
43581;DHT22;29175;51.030;4.606;2023-07-28T11:33:59;28.00;99.90
43581;DHT22;29175;51.030;4.606;2023-07-28T11:36:29;27.60;99.90
43581;DHT22;29175;51.030;4.606;2023-07-28T11:38:58;26.70;99.90
43581;DHT22;29175;51.030;4.606;2023-07-28T11:41:26;26.60;99.90
43581;DHT22;29175;51.030;4.606;2023-07-28T11:43:52;26.30;99.90
43581;DHT22;29175;51.030;4.606;2023-07-28T11:46:47;25.90;99.90
43581;DHT22;29175;51.030;4.606;2023-07-28T11:49:19;26.00;99.90
43581;DHT22;29175;51.030;4.606;2023-07-28T11:51:49;26.10;99.90
43581;DHT22;29175;51.030;4.606;2023-07-28T11:54:19;26.50;99.90
43581;DHT22;29175;51.030;4.606;2023-07-28T11:56:48;26.70;99.90
43581;DHT22;29175;51.030;4.606;2023-07-28T11:59:19;27.30;99.90
43581;DHT22;29175;51.030;4.606;2023-07-28T12:01:54;27.70;99.90
43581;DHT22;29175;51.030;4.606;2023-07-28T12:04:26;28.00;99.90
43581;DHT22;29175;51.030;4.606;2023-07-28T12:09:55;28.50;99.90
43581;DHT22;29175;51.030;4.606;2023-07-28T12:12:29;28.20;99.90
43581;DHT22;29175;51.030;4.606;2023-07-28T12:14:58;27.90;99.90
43581;DHT22;29175;51.030;4.606;2023-07-28T12:17:30;27.50;99.90
43581;DHT22;29175;51.030;4.606;2023-07-28T12:22:27;27.10;99.90
43581;DHT22;29175;51.030;4.606;2023-07-28T12:24:54;27.20;99.90
43581;DHT22;29175;51.030;4.606;2023-07-28T12:27:20;27.20;99.90
43581;DHT22;29175;51.030;4.606;2023-07-28T12:29:49;27.40;99.90
43581;DHT22;29175;51.030;4.606;2023-07-28T12:32:15;27.70;99.90
43581;DHT22;29175;51.030;4.606;2023-07-28T12:34:41;27.60;99.90
43581;DHT22;29175;51.030;4.606;2023-07-28T12:37:07;27.70;99.90
43581;DHT22;29175;51.030;4.606;2023-07-28T12:39:36;27.70;99.90
43581;DHT22;29175;51.030;4.606;2023-07-28T12:42:05;27.70;99.90
43581;DHT22;29175;51.030;4.606;2023-07-28T12:44:31;27.60;99.90
43581;DHT22;29175;51.030;4.606;2023-07-28T12:46:57;27.30;99.90
43581;DHT22;29175;51.030;4.606;2023-07-28T12:49:22;27.10;99.90
43581;DHT22;29175;51.030;4.606;2023-07-28T12:51:48;27.10;99.90
43581;DHT22;29175;51.030;4.606;2023-07-28T12:54:14;27.00;99.90
43581;DHT22;29175;51.030;4.606;2023-07-28T12:56:40;26.70;99.90
43581;DHT22;29175;51.030;4.606;2023-07-28T12:59:06;26.60;99.90
43581;DHT22;29175;51.030;4.606;2023-07-28T13:01:34;26.60;99.90
43581;DHT22;29175;51.030;4.606;2023-07-28T13:03:59;26.70;99.90
43581;DHT22;29175;51.030;4.606;2023-07-28T13:06:26;26.70;99.90
43581;DHT22;29175;51.030;4.606;2023-07-28T13:08:52;26.80;99.90
43581;DHT22;29175;51.030;4.606;2023-07-28T13:11:17;26.80;99.90
43581;DHT22;29175;51.030;4.606;2023-07-28T13:13:44;27.00;99.90
43581;DHT22;29175;51.030;4.606;2023-07-28T13:16:16;27.00;99.90
43581;DHT22;29175;51.030;4.606;2023-07-28T13:18:43;27.30;99.90
43581;DHT22;29175;51.030;4.606;2023-07-28T13:21:10;27.40;99.90
43581;DHT22;29175;51.030;4.606;2023-07-28T13:23:38;27.40;99.90
43581;DHT22;29175;51.030;4.606;2023-07-28T13:26:04;27.40;99.90
43581;DHT22;29175;51.030;4.606;2023-07-28T13:28:31;27.10;99.90
43581;DHT22;29175;51.030;4.606;2023-07-28T13:30:56;27.00;99.90
43581;DHT22;29175;51.030;4.606;2023-07-28T13:33:22;27.10;99.90
43581;DHT22;29175;51.030;4.606;2023-07-28T13:35:48;27.10;99.90
43581;DHT22;29175;51.030;4.606;2023-07-28T13:38:14;26.90;99.90
43581;DHT22;29175;51.030;4.606;2023-07-28T13:40:40;27.00;99.90
43581;DHT22;29175;51.030;4.606;2023-07-28T13:43:05;27.10;99.90
43581;DHT22;29175;51.030;4.606;2023-07-28T13:45:31;27.10;99.90
43581;DHT22;29175;51.030;4.606;2023-07-28T13:48:01;27.10;99.90
43581;DHT22;29175;51.030;4.606;2023-07-28T13:50:27;26.70;99.90
43581;DHT22;29175;51.030;4.606;2023-07-28T13:52:55;26.30;99.90
43581;DHT22;29175;51.030;4.606;2023-07-28T13:55:21;26.20;99.90
43581;DHT22;29175;51.030;4.606;2023-07-28T13:57:47;26.20;99.90
43581;DHT22;29175;51.030;4.606;2023-07-28T14:00:13;26.50;99.90
43581;DHT22;29175;51.030;4.606;2023-07-28T14:02:42;26.60;99.90
43581;DHT22;29175;51.030;4.606;2023-07-28T14:05:08;26.80;99.90
43581;DHT22;29175;51.030;4.606;2023-07-28T14:07:34;27.00;99.90
43581;DHT22;29175;51.030;4.606;2023-07-28T14:10:00;27.10;99.90
43581;DHT22;29175;51.030;4.606;2023-07-28T14:12:26;27.10;99.90
43581;DHT22;29175;51.030;4.606;2023-07-28T14:14:52;27.40;99.90
43581;DHT22;29175;51.030;4.606;2023-07-28T14:17:18;27.40;99.90
43581;DHT22;29175;51.030;4.606;2023-07-28T14:19:43;27.30;99.90
43581;DHT22;29175;51.030;4.606;2023-07-28T14:22:31;27.10;99.90
43581;DHT22;29175;51.030;4.606;2023-07-28T14:24:56;26.90;99.90
43581;DHT22;29175;51.030;4.606;2023-07-28T14:27:22;26.60;99.90
43581;DHT22;29175;51.030;4.606;2023-07-28T14:29:48;26.60;99.90
43581;DHT22;29175;51.030;4.606;2023-07-28T14:32:13;26.70;99.90
43581;DHT22;29175;51.030;4.606;2023-07-28T14:34:39;27.00;99.90
43581;DHT22;29175;51.030;4.606;2023-07-28T14:37:06;27.20;99.90
43581;DHT22;29175;51.030;4.606;2023-07-28T14:39:32;27.30;99.90
43581;DHT22;29175;51.030;4.606;2023-07-28T14:41:58;27.50;99.90
43581;DHT22;29175;51.030;4.606;2023-07-28T14:44:23;27.20;99.90
43581;DHT22;29175;51.030;4.606;2023-07-28T14:46:49;27.30;99.90
43581;DHT22;29175;51.030;4.606;2023-07-28T14:49:16;27.20;99.90
43581;DHT22;29175;51.030;4.606;2023-07-28T14:51:41;26.90;99.90
43581;DHT22;29175;51.030;4.606;2023-07-28T14:54:07;26.70;99.90
43581;DHT22;29175;51.030;4.606;2023-07-28T14:56:33;26.60;99.90
43581;DHT22;29175;51.030;4.606;2023-07-28T14:58:59;26.70;99.90
43581;DHT22;29175;51.030;4.606;2023-07-28T15:01:30;27.00;99.90
43581;DHT22;29175;51.030;4.606;2023-07-28T15:03:57;27.10;99.90
43581;DHT22;29175;51.030;4.606;2023-07-28T15:06:24;27.20;99.90
43581;DHT22;29175;51.030;4.606;2023-07-28T15:08:50;27.50;99.90
43581;DHT22;29175;51.030;4.606;2023-07-28T15:11:16;27.40;99.90
43581;DHT22;29175;51.030;4.606;2023-07-28T15:13:43;27.10;99.90
43581;DHT22;29175;51.030;4.606;2023-07-28T15:16:10;27.00;99.90
43581;DHT22;29175;51.030;4.606;2023-07-28T15:18:36;26.70;99.90
43581;DHT22;29175;51.030;4.606;2023-07-28T15:21:01;26.60;99.90
43581;DHT22;29175;51.030;4.606;2023-07-28T15:23:27;26.30;99.90
43581;DHT22;29175;51.030;4.606;2023-07-28T15:25:54;26.20;99.90
43581;DHT22;29175;51.030;4.606;2023-07-28T15:28:24;25.80;99.90
43581;DHT22;29175;51.030;4.606;2023-07-28T15:30:50;26.00;99.90
43581;DHT22;29175;51.030;4.606;2023-07-28T15:33:19;26.20;99.90